sensor_id;sensor_type;location;lat;lon;timestamp;temperature;humidity
73777;DHT22;62088;50.240;2.696;2023-05-10T00:00:42;13.50;82.80
73777;DHT22;62088;50.240;2.696;2023-05-10T00:03:09;13.40;82.70
73777;DHT22;62088;50.240;2.696;2023-05-10T00:05:37;13.40;82.70
73777;DHT22;62088;50.240;2.696;2023-05-10T00:08:04;13.40;82.70
73777;DHT22;62088;50.240;2.696;2023-05-10T00:10:31;13.40;82.70
73777;DHT22;62088;50.240;2.696;2023-05-10T00:12:58;13.30;82.70
73777;DHT22;62088;50.240;2.696;2023-05-10T00:15:25;13.20;82.60
73777;DHT22;62088;50.240;2.696;2023-05-10T00:17:52;13.20;82.60
73777;DHT22;62088;50.240;2.696;2023-05-10T00:20:21;13.20;82.60
73777;DHT22;62088;50.240;2.696;2023-05-10T00:22:48;13.20;82.60
73777;DHT22;62088;50.240;2.696;2023-05-10T00:25:15;13.20;82.60
73777;DHT22;62088;50.240;2.696;2023-05-10T00:27:42;13.00;82.60
73777;DHT22;62088;50.240;2.696;2023-05-10T00:30:10;13.10;82.70
73777;DHT22;62088;50.240;2.696;2023-05-10T00:32:37;13.00;82.70
73777;DHT22;62088;50.240;2.696;2023-05-10T00:35:05;13.00;82.70
73777;DHT22;62088;50.240;2.696;2023-05-10T00:37:32;13.00;82.70
73777;DHT22;62088;50.240;2.696;2023-05-10T00:39:59;12.90;82.70
73777;DHT22;62088;50.240;2.696;2023-05-10T00:42:26;12.90;82.70
73777;DHT22;62088;50.240;2.696;2023-05-10T00:44:54;12.90;82.60
73777;DHT22;62088;50.240;2.696;2023-05-10T00:47:21;12.90;82.60
73777;DHT22;62088;50.240;2.696;2023-05-10T00:49:49;12.90;82.60
73777;DHT22;62088;50.240;2.696;2023-05-10T00:52:16;12.90;82.50
73777;DHT22;62088;50.240;2.696;2023-05-10T00:54:43;12.80;82.40
73777;DHT22;62088;50.240;2.696;2023-05-10T00:57:11;12.80;82.50
73777;DHT22;62088;50.240;2.696;2023-05-10T00:59:38;12.80;82.50
73777;DHT22;62088;50.240;2.696;2023-05-10T01:02:06;12.70;82.50
73777;DHT22;62088;50.240;2.696;2023-05-10T01:04:33;12.70;82.40
73777;DHT22;62088;50.240;2.696;2023-05-10T01:07:02;12.70;82.40
73777;DHT22;62088;50.240;2.696;2023-05-10T01:09:29;12.70;82.40
73777;DHT22;62088;50.240;2.696;2023-05-10T01:11:56;12.70;82.30
73777;DHT22;62088;50.240;2.696;2023-05-10T01:14:25;12.70;82.30
73777;DHT22;62088;50.240;2.696;2023-05-10T01:16:52;12.60;82.20
73777;DHT22;62088;50.240;2.696;2023-05-10T01:19:25;12.60;82.30
73777;DHT22;62088;50.240;2.696;2023-05-10T01:36:13;12.50;82.00
73777;DHT22;62088;50.240;2.696;2023-05-10T01:38:43;12.50;81.90
73777;DHT22;62088;50.240;2.696;2023-05-10T01:41:28;12.50;81.90
73777;DHT22;62088;50.240;2.696;2023-05-10T01:44:28;12.50;81.90
73777;DHT22;62088;50.240;2.696;2023-05-10T01:47:05;12.50;82.00
73777;DHT22;62088;50.240;2.696;2023-05-10T01:49:42;12.40;81.90
73777;DHT22;62088;50.240;2.696;2023-05-10T01:52:12;12.40;81.90
73777;DHT22;62088;50.240;2.696;2023-05-10T01:54:44;12.40;81.90
73777;DHT22;62088;50.240;2.696;2023-05-10T01:57:16;12.40;82.00
73777;DHT22;62088;50.240;2.696;2023-05-10T01:59:46;12.40;81.90
73777;DHT22;62088;50.240;2.696;2023-05-10T02:02:17;12.40;81.90
73777;DHT22;62088;50.240;2.696;2023-05-10T02:04:46;12.40;81.80
73777;DHT22;62088;50.240;2.696;2023-05-10T02:07:14;12.40;81.80
73777;DHT22;62088;50.240;2.696;2023-05-10T02:09:44;12.40;81.80
73777;DHT22;62088;50.240;2.696;2023-05-10T02:12:15;12.40;81.80
73777;DHT22;62088;50.240;2.696;2023-05-10T02:14:43;12.40;81.80
73777;DHT22;62088;50.240;2.696;2023-05-10T02:17:11;12.40;81.80
73777;DHT22;62088;50.240;2.696;2023-05-10T02:19:40;12.40;81.90
73777;DHT22;62088;50.240;2.696;2023-05-10T02:22:09;12.40;81.90
73777;DHT22;62088;50.240;2.696;2023-05-10T02:24:37;12.40;81.90
73777;DHT22;62088;50.240;2.696;2023-05-10T02:27:06;12.40;82.00
73777;DHT22;62088;50.240;2.696;2023-05-10T02:29:34;12.40;82.00
73777;DHT22;62088;50.240;2.696;2023-05-10T02:32:03;12.40;82.00
73777;DHT22;62088;50.240;2.696;2023-05-10T02:34:31;12.40;82.00
73777;DHT22;62088;50.240;2.696;2023-05-10T02:36:59;12.40;82.00
73777;DHT22;62088;50.240;2.696;2023-05-10T02:39:29;12.40;82.10
73777;DHT22;62088;50.240;2.696;2023-05-10T02:41:58;12.40;82.10
73777;DHT22;62088;50.240;2.696;2023-05-10T02:44:28;12.40;82.10
73777;DHT22;62088;50.240;2.696;2023-05-10T02:46:57;12.40;82.10
73777;DHT22;62088;50.240;2.696;2023-05-10T02:49:25;12.40;82.20
73777;DHT22;62088;50.240;2.696;2023-05-10T02:51:56;12.30;82.30
73777;DHT22;62088;50.240;2.696;2023-05-10T02:54:30;12.30;82.30
73777;DHT22;62088;50.240;2.696;2023-05-10T02:57:00;12.30;82.40
73777;DHT22;62088;50.240;2.696;2023-05-10T02:59:30;12.30;82.30
73777;DHT22;62088;50.240;2.696;2023-05-10T03:01:59;12.30;82.40
73777;DHT22;62088;50.240;2.696;2023-05-10T03:04:27;12.30;82.40
73777;DHT22;62088;50.240;2.696;2023-05-10T03:06:56;12.30;82.40
73777;DHT22;62088;50.240;2.696;2023-05-10T03:09:24;12.20;82.50
73777;DHT22;62088;50.240;2.696;2023-05-10T03:17:10;12.20;82.60
73777;DHT22;62088;50.240;2.696;2023-05-10T03:19:48;12.20;82.60
73777;DHT22;62088;50.240;2.696;2023-05-10T03:22:44;12.20;82.60
73777;DHT22;62088;50.240;2.696;2023-05-10T03:25:12;12.20;82.60
73777;DHT22;62088;50.240;2.696;2023-05-10T03:27:43;12.20;82.60
73777;DHT22;62088;50.240;2.696;2023-05-10T03:30:12;12.20;82.60
73777;DHT22;62088;50.240;2.696;2023-05-10T03:32:39;12.10;82.60
73777;DHT22;62088;50.240;2.696;2023-05-10T03:35:11;12.20;82.60
73777;DHT22;62088;50.240;2.696;2023-05-10T03:37:40;12.10;82.60
73777;DHT22;62088;50.240;2.696;2023-05-10T03:40:09;12.10;82.70
73777;DHT22;62088;50.240;2.696;2023-05-10T03:42:39;12.10;82.70
73777;DHT22;62088;50.240;2.696;2023-05-10T03:45:06;12.00;82.70
73777;DHT22;62088;50.240;2.696;2023-05-10T03:47:34;12.00;82.70
73777;DHT22;62088;50.240;2.696;2023-05-10T03:50:02;12.00;82.80
73777;DHT22;62088;50.240;2.696;2023-05-10T03:52:29;12.00;82.80
73777;DHT22;62088;50.240;2.696;2023-05-10T03:54:56;12.00;82.80
73777;DHT22;62088;50.240;2.696;2023-05-10T03:57:23;12.00;82.80
73777;DHT22;62088;50.240;2.696;2023-05-10T03:59:51;12.00;82.80
73777;DHT22;62088;50.240;2.696;2023-05-10T04:02:18;12.00;82.90
73777;DHT22;62088;50.240;2.696;2023-05-10T04:04:45;11.90;83.00
73777;DHT22;62088;50.240;2.696;2023-05-10T04:07:12;11.90;83.00
73777;DHT22;62088;50.240;2.696;2023-05-10T04:09:39;12.00;83.10
73777;DHT22;62088;50.240;2.696;2023-05-10T04:12:06;11.90;83.10
73777;DHT22;62088;50.240;2.696;2023-05-10T04:14:36;11.90;83.10
73777;DHT22;62088;50.240;2.696;2023-05-10T04:17:03;12.00;83.10
73777;DHT22;62088;50.240;2.696;2023-05-10T04:19:31;12.00;83.10
73777;DHT22;62088;50.240;2.696;2023-05-10T04:21:59;12.00;83.20
73777;DHT22;62088;50.240;2.696;2023-05-10T04:24:26;12.00;83.20
73777;DHT22;62088;50.240;2.696;2023-05-10T04:26:54;12.00;83.20
73777;DHT22;62088;50.240;2.696;2023-05-10T04:29:23;11.90;83.30
73777;DHT22;62088;50.240;2.696;2023-05-10T04:31:50;11.90;83.30
73777;DHT22;62088;50.240;2.696;2023-05-10T04:34:17;11.90;83.30
73777;DHT22;62088;50.240;2.696;2023-05-10T04:36:45;12.00;83.30
73777;DHT22;62088;50.240;2.696;2023-05-10T04:39:12;11.90;83.40
73777;DHT22;62088;50.240;2.696;2023-05-10T04:41:40;11.90;83.40
73777;DHT22;62088;50.240;2.696;2023-05-10T04:44:07;11.90;83.40
73777;DHT22;62088;50.240;2.696;2023-05-10T04:46:34;11.90;83.40
73777;DHT22;62088;50.240;2.696;2023-05-10T04:49:01;11.90;83.50
73777;DHT22;62088;50.240;2.696;2023-05-10T04:51:28;11.90;83.50
73777;DHT22;62088;50.240;2.696;2023-05-10T04:53:55;11.90;83.50
73777;DHT22;62088;50.240;2.696;2023-05-10T04:56:32;11.90;83.60
73777;DHT22;62088;50.240;2.696;2023-05-10T04:58:59;11.90;83.60
73777;DHT22;62088;50.240;2.696;2023-05-10T05:01:26;11.90;83.60
73777;DHT22;62088;50.240;2.696;2023-05-10T05:03:53;11.90;83.60
73777;DHT22;62088;50.240;2.696;2023-05-10T05:06:20;11.90;83.60
73777;DHT22;62088;50.240;2.696;2023-05-10T05:08:47;11.90;83.70
73777;DHT22;62088;50.240;2.696;2023-05-10T05:11:17;11.90;83.60
73777;DHT22;62088;50.240;2.696;2023-05-10T05:13:44;11.90;83.70
73777;DHT22;62088;50.240;2.696;2023-05-10T05:16:11;11.90;83.70
73777;DHT22;62088;50.240;2.696;2023-05-10T05:18:38;11.90;83.70
73777;DHT22;62088;50.240;2.696;2023-05-10T05:21:19;11.90;83.70
73777;DHT22;62088;50.240;2.696;2023-05-10T05:23:46;11.90;83.70
73777;DHT22;62088;50.240;2.696;2023-05-10T05:26:13;11.90;83.80
73777;DHT22;62088;50.240;2.696;2023-05-10T05:28:41;11.90;83.80
73777;DHT22;62088;50.240;2.696;2023-05-10T05:31:09;11.90;83.70
73777;DHT22;62088;50.240;2.696;2023-05-10T05:33:36;11.90;83.70
73777;DHT22;62088;50.240;2.696;2023-05-10T05:36:04;11.90;83.80
73777;DHT22;62088;50.240;2.696;2023-05-10T05:38:32;12.00;83.70
73777;DHT22;62088;50.240;2.696;2023-05-10T05:40:59;12.00;83.70
73777;DHT22;62088;50.240;2.696;2023-05-10T05:43:26;12.00;83.70
73777;DHT22;62088;50.240;2.696;2023-05-10T05:45:53;12.00;83.70
73777;DHT22;62088;50.240;2.696;2023-05-10T05:48:21;11.90;83.80
73777;DHT22;62088;50.240;2.696;2023-05-10T05:50:48;12.00;83.80
73777;DHT22;62088;50.240;2.696;2023-05-10T05:53:15;12.00;83.80
73777;DHT22;62088;50.240;2.696;2023-05-10T05:55:56;12.00;83.80
73777;DHT22;62088;50.240;2.696;2023-05-10T05:58:25;12.00;83.80
73777;DHT22;62088;50.240;2.696;2023-05-10T06:00:52;11.90;83.90
73777;DHT22;62088;50.240;2.696;2023-05-10T06:03:20;11.90;83.90
73777;DHT22;62088;50.240;2.696;2023-05-10T06:05:47;11.90;84.00
73777;DHT22;62088;50.240;2.696;2023-05-10T06:08:14;11.90;84.00
73777;DHT22;62088;50.240;2.696;2023-05-10T06:10:41;11.90;84.00
73777;DHT22;62088;50.240;2.696;2023-05-10T06:13:08;11.90;84.10
73777;DHT22;62088;50.240;2.696;2023-05-10T06:15:36;11.90;84.10
73777;DHT22;62088;50.240;2.696;2023-05-10T06:18:03;11.90;84.10
73777;DHT22;62088;50.240;2.696;2023-05-10T06:20:30;11.90;84.20
73777;DHT22;62088;50.240;2.696;2023-05-10T06:22:58;11.90;84.20
73777;DHT22;62088;50.240;2.696;2023-05-10T06:25:25;11.90;84.30
73777;DHT22;62088;50.240;2.696;2023-05-10T06:27:52;11.90;84.30
73777;DHT22;62088;50.240;2.696;2023-05-10T06:30:25;11.90;84.30
73777;DHT22;62088;50.240;2.696;2023-05-10T06:32:56;11.90;84.40
73777;DHT22;62088;50.240;2.696;2023-05-10T06:35:23;11.90;84.40
73777;DHT22;62088;50.240;2.696;2023-05-10T06:37:50;12.00;84.40
73777;DHT22;62088;50.240;2.696;2023-05-10T06:40:18;12.00;84.40
73777;DHT22;62088;50.240;2.696;2023-05-10T06:42:46;12.00;84.40
73777;DHT22;62088;50.240;2.696;2023-05-10T06:45:15;12.00;84.40
73777;DHT22;62088;50.240;2.696;2023-05-10T06:47:43;12.00;84.40
73777;DHT22;62088;50.240;2.696;2023-05-10T06:50:10;12.10;84.40
73777;DHT22;62088;50.240;2.696;2023-05-10T06:52:40;12.10;84.40
73777;DHT22;62088;50.240;2.696;2023-05-10T06:55:08;12.10;84.50
73777;DHT22;62088;50.240;2.696;2023-05-10T06:57:35;12.10;84.50
73777;DHT22;62088;50.240;2.696;2023-05-10T07:00:03;12.10;84.50
73777;DHT22;62088;50.240;2.696;2023-05-10T07:02:31;12.20;84.50
73777;DHT22;62088;50.240;2.696;2023-05-10T07:04:58;12.20;84.50
73777;DHT22;62088;50.240;2.696;2023-05-10T07:07:29;12.20;84.60
73777;DHT22;62088;50.240;2.696;2023-05-10T07:09:56;12.20;84.60
73777;DHT22;62088;50.240;2.696;2023-05-10T07:12:24;12.20;84.60
73777;DHT22;62088;50.240;2.696;2023-05-10T07:14:52;12.20;84.60
73777;DHT22;62088;50.240;2.696;2023-05-10T07:17:19;12.30;84.60
73777;DHT22;62088;50.240;2.696;2023-05-10T07:19:47;12.30;84.60
73777;DHT22;62088;50.240;2.696;2023-05-10T07:22:15;12.30;84.60
73777;DHT22;62088;50.240;2.696;2023-05-10T07:24:42;12.30;84.60
73777;DHT22;62088;50.240;2.696;2023-05-10T07:27:09;12.30;84.60
73777;DHT22;62088;50.240;2.696;2023-05-10T07:29:36;12.40;84.60
73777;DHT22;62088;50.240;2.696;2023-05-10T07:32:04;12.40;84.60
73777;DHT22;62088;50.240;2.696;2023-05-10T07:34:32;12.40;84.70
73777;DHT22;62088;50.240;2.696;2023-05-10T07:37:00;12.40;84.70
73777;DHT22;62088;50.240;2.696;2023-05-10T07:39:27;12.40;84.70
73777;DHT22;62088;50.240;2.696;2023-05-10T07:41:55;12.40;84.80
73777;DHT22;62088;50.240;2.696;2023-05-10T07:44:22;12.40;84.70
73777;DHT22;62088;50.240;2.696;2023-05-10T07:46:50;12.50;84.80
73777;DHT22;62088;50.240;2.696;2023-05-10T07:49:17;12.50;84.80
73777;DHT22;62088;50.240;2.696;2023-05-10T07:51:44;12.50;84.70
73777;DHT22;62088;50.240;2.696;2023-05-10T07:54:11;12.50;84.80
73777;DHT22;62088;50.240;2.696;2023-05-10T07:56:39;12.60;84.80
73777;DHT22;62088;50.240;2.696;2023-05-10T07:59:15;12.60;84.80
73777;DHT22;62088;50.240;2.696;2023-05-10T08:01:42;12.60;84.80
73777;DHT22;62088;50.240;2.696;2023-05-10T08:04:09;12.60;84.80
73777;DHT22;62088;50.240;2.696;2023-05-10T08:06:37;12.60;84.80
73777;DHT22;62088;50.240;2.696;2023-05-10T08:09:04;12.70;84.80
73777;DHT22;62088;50.240;2.696;2023-05-10T08:11:31;12.70;84.80
73777;DHT22;62088;50.240;2.696;2023-05-10T08:14:00;12.80;84.90
73777;DHT22;62088;50.240;2.696;2023-05-10T08:16:28;12.80;84.90
73777;DHT22;62088;50.240;2.696;2023-05-10T08:18:55;12.90;85.00
73777;DHT22;62088;50.240;2.696;2023-05-10T08:21:23;12.90;85.00
73777;DHT22;62088;50.240;2.696;2023-05-10T08:23:50;12.90;85.00
73777;DHT22;62088;50.240;2.696;2023-05-10T08:26:17;12.90;85.00
73777;DHT22;62088;50.240;2.696;2023-05-10T08:28:44;13.00;85.00
73777;DHT22;62088;50.240;2.696;2023-05-10T08:31:12;13.10;85.10
73777;DHT22;62088;50.240;2.696;2023-05-10T08:33:39;13.20;85.20
73777;DHT22;62088;50.240;2.696;2023-05-10T08:36:08;13.20;85.20
73777;DHT22;62088;50.240;2.696;2023-05-10T08:38:36;13.20;85.30
73777;DHT22;62088;50.240;2.696;2023-05-10T08:41:05;13.30;85.20
73777;DHT22;62088;50.240;2.696;2023-05-10T08:43:35;13.40;85.30
73777;DHT22;62088;50.240;2.696;2023-05-10T08:46:05;13.40;85.20
73777;DHT22;62088;50.240;2.696;2023-05-10T08:48:34;13.40;85.20
73777;DHT22;62088;50.240;2.696;2023-05-10T08:51:03;13.40;85.00
73777;DHT22;62088;50.240;2.696;2023-05-10T08:53:31;13.50;84.90
73777;DHT22;62088;50.240;2.696;2023-05-10T08:56:01;13.50;84.80
73777;DHT22;62088;50.240;2.696;2023-05-10T08:58:29;13.50;84.80
73777;DHT22;62088;50.240;2.696;2023-05-10T09:00:57;13.50;84.70
73777;DHT22;62088;50.240;2.696;2023-05-10T09:03:24;13.50;84.70
73777;DHT22;62088;50.240;2.696;2023-05-10T09:05:51;13.50;84.70
73777;DHT22;62088;50.240;2.696;2023-05-10T09:08:19;13.50;84.80
73777;DHT22;62088;50.240;2.696;2023-05-10T09:10:48;13.60;84.90
73777;DHT22;62088;50.240;2.696;2023-05-10T09:13:15;13.70;85.10
73777;DHT22;62088;50.240;2.696;2023-05-10T09:15:44;13.90;85.30
73777;DHT22;62088;50.240;2.696;2023-05-10T09:18:12;13.90;85.40
73777;DHT22;62088;50.240;2.696;2023-05-10T09:20:39;14.10;85.50
73777;DHT22;62088;50.240;2.696;2023-05-10T09:23:07;14.20;85.60
73777;DHT22;62088;50.240;2.696;2023-05-10T09:25:34;14.30;85.60
73777;DHT22;62088;50.240;2.696;2023-05-10T09:28:01;14.40;85.60
73777;DHT22;62088;50.240;2.696;2023-05-10T09:30:30;14.50;85.40
73777;DHT22;62088;50.240;2.696;2023-05-10T09:32:59;14.60;85.20
73777;DHT22;62088;50.240;2.696;2023-05-10T09:35:31;14.60;85.00
73777;DHT22;62088;50.240;2.696;2023-05-10T09:38:02;14.70;84.80
73777;DHT22;62088;50.240;2.696;2023-05-10T09:40:30;14.70;84.70
73777;DHT22;62088;50.240;2.696;2023-05-10T09:43:07;14.90;84.60
73777;DHT22;62088;50.240;2.696;2023-05-10T09:45:35;14.90;84.50
73777;DHT22;62088;50.240;2.696;2023-05-10T09:48:04;14.90;84.40
73777;DHT22;62088;50.240;2.696;2023-05-10T09:50:32;15.10;84.20
73777;DHT22;62088;50.240;2.696;2023-05-10T09:53:02;15.20;84.20
73777;DHT22;62088;50.240;2.696;2023-05-10T09:58:03;15.40;84.00
73777;DHT22;62088;50.240;2.696;2023-05-10T10:00:44;15.40;83.80
73777;DHT22;62088;50.240;2.696;2023-05-10T10:03:16;15.40;83.50
73777;DHT22;62088;50.240;2.696;2023-05-10T10:05:44;15.50;83.10
73777;DHT22;62088;50.240;2.696;2023-05-10T10:08:13;15.50;82.80
73777;DHT22;62088;50.240;2.696;2023-05-10T10:10:41;15.50;82.60
73777;DHT22;62088;50.240;2.696;2023-05-10T10:13:08;15.50;82.40
73777;DHT22;62088;50.240;2.696;2023-05-10T10:15:35;15.50;82.30
73777;DHT22;62088;50.240;2.696;2023-05-10T10:18:02;15.60;82.20
73777;DHT22;62088;50.240;2.696;2023-05-10T10:20:33;15.50;81.90
73777;DHT22;62088;50.240;2.696;2023-05-10T10:23:00;15.50;81.70
73777;DHT22;62088;50.240;2.696;2023-05-10T10:25:27;15.50;81.50
73777;DHT22;62088;50.240;2.696;2023-05-10T10:28:01;15.40;81.20
73777;DHT22;62088;50.240;2.696;2023-05-10T10:30:48;15.40;81.10
73777;DHT22;62088;50.240;2.696;2023-05-10T10:35:55;15.40;81.10
73777;DHT22;62088;50.240;2.696;2023-05-10T10:38:24;15.30;81.10
73777;DHT22;62088;50.240;2.696;2023-05-10T10:41:10;15.30;81.20
73777;DHT22;62088;50.240;2.696;2023-05-10T10:43:38;15.30;81.30
73777;DHT22;62088;50.240;2.696;2023-05-10T10:46:17;15.30;81.50
73777;DHT22;62088;50.240;2.696;2023-05-10T10:48:49;15.30;81.60
73777;DHT22;62088;50.240;2.696;2023-05-10T10:51:18;15.20;81.70
73777;DHT22;62088;50.240;2.696;2023-05-10T10:53:47;15.30;81.70
73777;DHT22;62088;50.240;2.696;2023-05-10T10:56:14;15.30;81.80
73777;DHT22;62088;50.240;2.696;2023-05-10T10:58:49;15.30;81.80
73777;DHT22;62088;50.240;2.696;2023-05-10T11:01:18;15.30;82.00
73777;DHT22;62088;50.240;2.696;2023-05-10T11:06:33;15.40;82.40
73777;DHT22;62088;50.240;2.696;2023-05-10T11:09:11;15.50;82.30
73777;DHT22;62088;50.240;2.696;2023-05-10T11:11:56;15.60;82.30
73777;DHT22;62088;50.240;2.696;2023-05-10T11:14:25;15.70;82.00
73777;DHT22;62088;50.240;2.696;2023-05-10T11:16:52;15.70;81.80
73777;DHT22;62088;50.240;2.696;2023-05-10T11:19:19;15.70;81.60
73777;DHT22;62088;50.240;2.696;2023-05-10T11:24:33;15.90;81.70
73777;DHT22;62088;50.240;2.696;2023-05-10T11:27:00;16.00;81.70
73777;DHT22;62088;50.240;2.696;2023-05-10T11:29:27;16.20;81.90
73777;DHT22;62088;50.240;2.696;2023-05-10T11:31:57;16.30;81.80
73777;DHT22;62088;50.240;2.696;2023-05-10T11:34:29;16.40;81.30
73777;DHT22;62088;50.240;2.696;2023-05-10T11:36:57;16.60;80.70
73777;DHT22;62088;50.240;2.696;2023-05-10T11:39:28;16.80;80.50
73777;DHT22;62088;50.240;2.696;2023-05-10T11:41:56;16.90;80.20
73777;DHT22;62088;50.240;2.696;2023-05-10T11:44:29;17.10;79.50
73777;DHT22;62088;50.240;2.696;2023-05-10T11:47:20;17.20;78.90
73777;DHT22;62088;50.240;2.696;2023-05-10T11:49:48;17.30;78.10
73777;DHT22;62088;50.240;2.696;2023-05-10T11:52:15;17.30;77.80
73777;DHT22;62088;50.240;2.696;2023-05-10T11:54:52;17.40;77.50
73777;DHT22;62088;50.240;2.696;2023-05-10T11:57:20;17.40;77.00
73777;DHT22;62088;50.240;2.696;2023-05-10T11:59:47;17.40;77.10
73777;DHT22;62088;50.240;2.696;2023-05-10T12:02:19;17.60;77.10
73777;DHT22;62088;50.240;2.696;2023-05-10T12:04:47;17.70;77.00
73777;DHT22;62088;50.240;2.696;2023-05-10T12:07:14;17.80;76.30
73777;DHT22;62088;50.240;2.696;2023-05-10T12:09:44;17.90;75.80
73777;DHT22;62088;50.240;2.696;2023-05-10T12:12:17;18.00;75.80
73777;DHT22;62088;50.240;2.696;2023-05-10T12:14:50;18.20;75.30
73777;DHT22;62088;50.240;2.696;2023-05-10T12:17:17;18.30;74.80
73777;DHT22;62088;50.240;2.696;2023-05-10T12:19:44;18.40;74.10
73777;DHT22;62088;50.240;2.696;2023-05-10T12:22:11;18.40;73.80
73777;DHT22;62088;50.240;2.696;2023-05-10T12:24:38;18.40;73.40
73777;DHT22;62088;50.240;2.696;2023-05-10T12:27:07;18.40;73.20
73777;DHT22;62088;50.240;2.696;2023-05-10T12:29:35;18.30;72.40
73777;DHT22;62088;50.240;2.696;2023-05-10T12:32:02;18.20;72.50
73777;DHT22;62088;50.240;2.696;2023-05-10T12:34:35;18.20;72.60
73777;DHT22;62088;50.240;2.696;2023-05-10T12:37:03;18.10;72.90
73777;DHT22;62088;50.240;2.696;2023-05-10T12:39:41;18.20;73.20
73777;DHT22;62088;50.240;2.696;2023-05-10T12:42:09;18.30;73.40
73777;DHT22;62088;50.240;2.696;2023-05-10T12:44:36;18.40;73.50
73777;DHT22;62088;50.240;2.696;2023-05-10T12:47:03;18.40;73.30
73777;DHT22;62088;50.240;2.696;2023-05-10T12:49:30;18.60;73.10
73777;DHT22;62088;50.240;2.696;2023-05-10T12:51:57;18.70;72.20
73777;DHT22;62088;50.240;2.696;2023-05-10T12:54:24;18.80;72.10
73777;DHT22;62088;50.240;2.696;2023-05-10T12:56:51;18.90;71.90
73777;DHT22;62088;50.240;2.696;2023-05-10T12:59:18;19.10;71.20
73777;DHT22;62088;50.240;2.696;2023-05-10T13:01:45;19.20;70.60
73777;DHT22;62088;50.240;2.696;2023-05-10T13:04:12;19.30;70.50
73777;DHT22;62088;50.240;2.696;2023-05-10T13:06:39;19.40;70.60
73777;DHT22;62088;50.240;2.696;2023-05-10T13:09:06;19.60;70.00
73777;DHT22;62088;50.240;2.696;2023-05-10T13:11:33;19.70;69.40
73777;DHT22;62088;50.240;2.696;2023-05-10T13:14:00;19.90;67.90
73777;DHT22;62088;50.240;2.696;2023-05-10T13:16:30;19.90;67.50
73777;DHT22;62088;50.240;2.696;2023-05-10T13:18:57;20.00;67.80
73777;DHT22;62088;50.240;2.696;2023-05-10T13:21:25;20.10;68.10
73777;DHT22;62088;50.240;2.696;2023-05-10T13:23:53;20.30;67.90
73777;DHT22;62088;50.240;2.696;2023-05-10T13:26:20;20.40;67.60
73777;DHT22;62088;50.240;2.696;2023-05-10T13:28:47;20.40;66.90
73777;DHT22;62088;50.240;2.696;2023-05-10T13:31:15;20.40;66.60
73777;DHT22;62088;50.240;2.696;2023-05-10T13:33:42;20.60;66.80
73777;DHT22;62088;50.240;2.696;2023-05-10T13:36:09;20.60;66.30
73777;DHT22;62088;50.240;2.696;2023-05-10T13:38:36;20.60;65.80
73777;DHT22;62088;50.240;2.696;2023-05-10T13:41:04;20.60;65.60
73777;DHT22;62088;50.240;2.696;2023-05-10T13:43:31;20.60;64.90
73777;DHT22;62088;50.240;2.696;2023-05-10T13:45:58;20.70;64.70
73777;DHT22;62088;50.240;2.696;2023-05-10T13:48:26;20.70;64.40
73777;DHT22;62088;50.240;2.696;2023-05-10T13:50:53;20.80;64.00
73777;DHT22;62088;50.240;2.696;2023-05-10T13:53:20;20.90;64.10
73777;DHT22;62088;50.240;2.696;2023-05-10T13:55:47;20.90;64.50
73777;DHT22;62088;50.240;2.696;2023-05-10T13:58:14;20.90;64.50
73777;DHT22;62088;50.240;2.696;2023-05-10T14:00:41;20.90;64.10
73777;DHT22;62088;50.240;2.696;2023-05-10T14:03:09;20.90;63.70
73777;DHT22;62088;50.240;2.696;2023-05-10T14:05:38;20.90;63.20
73777;DHT22;62088;50.240;2.696;2023-05-10T14:08:05;20.90;62.70
73777;DHT22;62088;50.240;2.696;2023-05-10T14:10:32;20.90;62.90
73777;DHT22;62088;50.240;2.696;2023-05-10T14:12:59;20.90;63.10
73777;DHT22;62088;50.240;2.696;2023-05-10T14:15:26;20.90;62.60
73777;DHT22;62088;50.240;2.696;2023-05-10T14:17:53;21.00;62.10
73777;DHT22;62088;50.240;2.696;2023-05-10T14:20:20;21.10;61.90
73777;DHT22;62088;50.240;2.696;2023-05-10T14:22:47;21.00;61.70
73777;DHT22;62088;50.240;2.696;2023-05-10T14:25:14;21.00;61.90
73777;DHT22;62088;50.240;2.696;2023-05-10T14:27:42;21.10;62.20
73777;DHT22;62088;50.240;2.696;2023-05-10T14:30:09;21.10;62.20
73777;DHT22;62088;50.240;2.696;2023-05-10T14:32:36;21.10;61.90
73777;DHT22;62088;50.240;2.696;2023-05-10T14:35:05;21.10;61.10
73777;DHT22;62088;50.240;2.696;2023-05-10T14:37:33;21.10;60.60
73777;DHT22;62088;50.240;2.696;2023-05-10T14:40:00;21.00;60.20
73777;DHT22;62088;50.240;2.696;2023-05-10T14:42:27;20.90;60.50
73777;DHT22;62088;50.240;2.696;2023-05-10T14:44:55;20.90;61.20
73777;DHT22;62088;50.240;2.696;2023-05-10T14:47:22;20.90;61.30
73777;DHT22;62088;50.240;2.696;2023-05-10T14:49:49;20.90;61.20
73777;DHT22;62088;50.240;2.696;2023-05-10T14:52:16;20.90;60.60
73777;DHT22;62088;50.240;2.696;2023-05-10T14:54:44;20.90;60.40
73777;DHT22;62088;50.240;2.696;2023-05-10T14:57:11;20.90;60.70
73777;DHT22;62088;50.240;2.696;2023-05-10T14:59:38;20.90;61.00
73777;DHT22;62088;50.240;2.696;2023-05-10T15:02:05;21.00;61.20
73777;DHT22;62088;50.240;2.696;2023-05-10T15:04:35;21.00;61.10
73777;DHT22;62088;50.240;2.696;2023-05-10T15:07:03;21.00;60.20
73777;DHT22;62088;50.240;2.696;2023-05-10T15:09:30;21.10;59.50
73777;DHT22;62088;50.240;2.696;2023-05-10T15:11:57;21.10;59.40
73777;DHT22;62088;50.240;2.696;2023-05-10T15:14:24;21.10;58.60
73777;DHT22;62088;50.240;2.696;2023-05-10T15:16:51;21.00;58.00
73777;DHT22;62088;50.240;2.696;2023-05-10T15:19:19;20.90;58.40
73777;DHT22;62088;50.240;2.696;2023-05-10T15:21:46;20.90;58.80
73777;DHT22;62088;50.240;2.696;2023-05-10T15:24:14;20.90;59.10
73777;DHT22;62088;50.240;2.696;2023-05-10T15:26:41;20.90;58.90
73777;DHT22;62088;50.240;2.696;2023-05-10T15:29:08;20.90;58.90
73777;DHT22;62088;50.240;2.696;2023-05-10T15:31:35;20.80;58.90
73777;DHT22;62088;50.240;2.696;2023-05-10T15:34:02;20.80;59.20
73777;DHT22;62088;50.240;2.696;2023-05-10T15:36:31;20.80;59.80
73777;DHT22;62088;50.240;2.696;2023-05-10T15:38:58;20.70;60.20
73777;DHT22;62088;50.240;2.696;2023-05-10T15:41:25;20.70;60.20
73777;DHT22;62088;50.240;2.696;2023-05-10T15:43:53;20.70;60.20
73777;DHT22;62088;50.240;2.696;2023-05-10T15:46:20;20.60;59.80
73777;DHT22;62088;50.240;2.696;2023-05-10T15:48:47;20.60;59.60
73777;DHT22;62088;50.240;2.696;2023-05-10T15:51:14;20.50;59.60
73777;DHT22;62088;50.240;2.696;2023-05-10T15:53:41;20.50;60.20
73777;DHT22;62088;50.240;2.696;2023-05-10T15:56:28;20.50;60.70
73777;DHT22;62088;50.240;2.696;2023-05-10T15:58:55;20.50;61.20
73777;DHT22;62088;50.240;2.696;2023-05-10T16:01:23;20.50;60.90
73777;DHT22;62088;50.240;2.696;2023-05-10T16:03:50;20.40;61.00
73777;DHT22;62088;50.240;2.696;2023-05-10T16:06:17;20.40;61.10
73777;DHT22;62088;50.240;2.696;2023-05-10T16:08:44;20.40;61.10